Alexis — WDB4961 — position and weather

sailwx.info

Track history (hours):
 
Tides and Currents Weather Stations Pressure Air Temp Water Temp Dewpoint Dewpoint Depression Visibility Wind Speed Wind Dir Waves Ship Positions

Alexis

Owner: Fordham, robert E, Monroe, WA. More information available from US FCC via Universal Licensing System and Coast Guard Vessel Documentation Center.

Last reported at 2015-May-30 12:31 UTC. Time now 2015-May-30 12:35 UTC.
Position N 47°41' W 122°25'.

Length 28 m; draft 2 m.

Type: Pleasure craft. MMSI: 366904250.

Date/timePositionNaut miles runAvg speedWind from/ knotsBaromVisibWave heightAir tempDewpointWater temp
2015-May-30 12:31N 47°41' W 122°25'0 0.0
2015-May-30 11:25N 47°41' W 122°25'0 0.0
2015-May-30 10:28N 47°41' W 122°25'0 0.0
2015-May-30 09:31N 47°41' W 122°25'0 0.0
2015-May-30 08:31N 47°41' W 122°25'0 0.0
2015-May-30 07:31N 47°41' W 122°25'0 0.0
2015-May-30 06:31N 47°41' W 122°25'0 0.0
2015-May-30 05:31N 47°41' W 122°25'0 0.0
2015-May-30 04:31N 47°41' W 122°25'0 0.0
2015-May-30 03:31N 47°41' W 122°25'0 0.0
2015-May-30 02:25N 47°41' W 122°25'0 0.0
2015-May-30 01:31N 47°41' W 122°25'0 0.0
2015-May-30 00:19N 47°41' W 122°25'0 0.0
2015-May-29 22:31N 47°41' W 122°25'0 0.0
2015-May-29 21:13N 47°41' W 122°25'0 0.0
2015-May-29 20:19N 47°41' W 122°25'0 0.0
2015-May-29 20:07N 47°41' W 122°25'0 0.0
2015-May-29 19:31N 47°41' W 122°25'0 0.0
2015-May-29 19:07N 47°41' W 122°25'0 0.0
2015-May-29 18:31N 47°41' W 122°25'0 0.0
2015-May-29 18:31N 47°41' W 122°25'0 0.0
2015-May-29 17:31N 47°41' W 122°25'0 0.0
2015-May-29 17:31N 47°41' W 122°25'0 0.0
2015-May-29 16:31N 47°41' W 122°25'0 0.0
2015-May-29 16:31N 47°41' W 122°25'0 0.0
2015-May-29 15:31N 47°41' W 122°25'0 0.0
2015-May-29 15:25N 47°41' W 122°25'0 0.0
2015-May-29 14:31N 47°41' W 122°25'0 0.0
2015-May-29 14:10N 47°41' W 122°25'0 0.0
2015-May-29 13:31N 47°41' W 122°25'0 0.0
2015-May-29 13:19N 47°41' W 122°25'0 0.0
2015-May-29 12:31N 47°41' W 122°25'0 0.0
2015-May-29 11:43N 47°41' W 122°25'0 0.0
2015-May-29 11:28N 47°41' W 122°25'0 0.0
2015-May-29 11:28N 47°41' W 122°25'0 0.0
2015-May-29 10:31N 47°41' W 122°25'0 0.1
2015-May-29 10:28N 47°41' W 122°25'0 0.0
2015-May-29 09:31N 47°41' W 122°25'0 0.0
2015-May-29 09:22N 47°41' W 122°25'0 0.0
2015-May-29 08:31N 47°41' W 122°25'0 0.0
2015-May-29 08:07N 47°41' W 122°25'0 0.0
2015-May-29 07:31N 47°41' W 122°25'0 0.0
2015-May-29 06:31N 47°41' W 122°25'0 0.0
2015-May-29 05:31N 47°41' W 122°25'0 0.0
2015-May-29 04:31N 47°41' W 122°25'0 0.0
2015-May-29 03:34N 47°41' W 122°25'0 0.1
2015-May-29 03:31N 47°41' W 122°25'0 0.0
2015-May-29 03:19N 47°41' W 122°25'0 0.0
2015-May-29 02:31N 47°41' W 122°25'0 0.0
2015-May-29 02:19N 47°41' W 122°25'0 0.0
2015-May-29 01:28N 47°41' W 122°25'0 0.0
2015-May-29 01:28N 47°41' W 122°25'0 0.0
2015-May-29 00:31N 47°41' W 122°25'0 0.0
2015-May-29 00:28N 47°41' W 122°25'0 0.0
2015-May-28 23:28N 47°41' W 122°25'0 0.0
2015-May-28 23:28N 47°41' W 122°25'3 3.7
2015-May-28 22:33N 47°37' W 122°23'0 0.0
2015-May-28 22:33N 47°37' W 122°23'1 1.4
2015-May-28 21:33N 47°37' W 122°21'0 6.9
2015-May-28 21:32N 47°37' W 122°22'4 3.7
2015-May-28 20:23N 47°41' W 122°25'0 0.0
2015-May-28 20:05N 47°41' W 122°25'0 0.0
2015-May-28 19:32N 47°41' W 122°25'0 0.0
2015-May-28 19:20N 47°41' W 122°25'0 0.0
2015-May-28 18:17N 47°41' W 122°25'0 0.0
2015-May-28 17:59N 47°41' W 122°25'0 0.0
2015-May-28 17:32N 47°41' W 122°25'0 0.0
2015-May-28 16:32N 47°41' W 122°25'0 0.0
2015-May-28 16:32N 47°41' W 122°25'0 0.0
2015-May-28 15:29N 47°41' W 122°25'0 0.0
2015-May-28 14:29N 47°41' W 122°25'0 0.0
2015-May-28 13:56N 47°41' W 122°25'0 0.0
2015-May-28 13:26N 47°41' W 122°25'0 0.0
2015-May-28 13:26N 47°41' W 122°25'0 0.0
2015-May-28 12:33N 47°41' W 122°25'0 0.0
2015-May-28 11:32N 47°41' W 122°25'0 0.0
2015-May-28 10:32N 47°41' W 122°25'0 0.0
2015-May-28 09:56N 47°41' W 122°25'0 0.0
2015-May-28 09:32N 47°41' W 122°25'0 0.0
2015-May-28 09:26N 47°41' W 122°25'0 0.0
2015-May-28 08:32N 47°41' W 122°25'0 0.0
2015-May-28 07:29N 47°41' W 122°25'0 0.0
2015-May-28 06:50N 47°41' W 122°25'0 0.0
2015-May-28 06:32N 47°41' W 122°25'0 0.0
2015-May-28 06:20N 47°41' W 122°25'0 0.0
2015-May-28 06:05N 47°41' W 122°25'0 0.0
2015-May-28 05:26N 47°41' W 122°25'0 0.0
2015-May-28 04:32N 47°41' W 122°25'0 0.0
2015-May-28 03:44N 47°41' W 122°25'0 0.0
2015-May-28 03:32N 47°41' W 122°25'0 0.0
2015-May-28 03:29N 47°41' W 122°25'0 0.0
2015-May-28 02:32N 47°41' W 122°25'0 0.0
2015-May-28 02:14N 47°41' W 122°25'0 0.0
2015-May-28 01:32N 47°41' W 122°25'0 0.0
2015-May-28 00:38N 47°41' W 122°25'0 0.0
2015-May-28 00:32N 47°41' W 122°25'0 0.0
2015-May-27 23:53N 47°41' W 122°25'0 0.0
2015-May-27 23:29N 47°41' W 122°25'0 0.0
2015-May-27 23:23N 47°41' W 122°25'0 0.0
2015-May-27 22:23N 47°41' W 122°25'0 0.0
2015-May-27 22:17N 47°41' W 122°25'0 0.0
2015-May-27 21:32N 47°41' W 122°25'0 0.0
2015-May-27 21:32N 47°41' W 122°25'0 0.0
2015-May-27 20:29N 47°41' W 122°25'0 0.0
2015-May-27 19:56N 47°41' W 122°25'0 0.0
2015-May-27 19:32N 47°41' W 122°25'0 0.0
2015-May-27 19:05N 47°41' W 122°25'0 0.0
2015-May-27 18:23N 47°41' W 122°25'0 0.0
2015-May-27 17:59N 47°41' W 122°25'0 0.0
2015-May-27 17:26N 47°41' W 122°25'0 0.0
2015-May-27 16:32N 47°41' W 122°25'0 0.0
2015-May-27 16:32N 47°41' W 122°25'0 0.0
2015-May-27 15:32N 47°41' W 122°25'0 0.0
2015-May-27 15:32N 47°41' W 122°25'0 0.0
2015-May-27 14:32N 47°41' W 122°25'0 0.0
2015-May-27 13:26N 47°41' W 122°25'0 0.0
2015-May-27 12:32N 47°41' W 122°25'0 0.0
2015-May-27 11:32N 47°41' W 122°25'0 0.0
2015-May-27 11:32N 47°41' W 122°25'0 0.0
2015-May-27 10:32N 47°41' W 122°25'0 0.0
2015-May-27 10:11N 47°41' W 122°25'0 0.0
2015-May-27 09:32N 47°41' W 122°25'0 0.0
2015-May-27 09:26N 47°41' W 122°25'0 0.0
2015-May-27 08:32N 47°41' W 122°25'0 0.1
2015-May-27 08:26N 47°41' W 122°25'0 0.0
2015-May-27 07:32N 47°41' W 122°25'0 0.1
2015-May-27 07:26N 47°41' W 122°25'0 0.0
2015-May-27 06:32N 47°41' W 122°25'0 0.1
2015-May-27 06:26N 47°41' W 122°25'0 0.0
2015-May-27 06:05N 47°41' W 122°25'0 0.0
2015-May-27 05:32N 47°41' W 122°25'0 0.0
2015-May-27 04:32N 47°41' W 122°25'0 0.0
2015-May-27 04:20N 47°41' W 122°25'0 0.0
2015-May-27 03:32N 47°41' W 122°25'0 0.0
2015-May-27 03:20N 47°41' W 122°25'0 0.0
2015-May-27 02:32N 47°41' W 122°25'0 0.0
2015-May-27 02:20N 47°41' W 122°25'0 0.0
2015-May-27 01:29N 47°41' W 122°25'0 0.0
2015-May-27 01:29N 47°41' W 122°25'0 0.0
2015-May-27 00:23N 47°41' W 122°25'0 0.0
2015-May-27 00:14N 47°41' W 122°25'0 0.0
2015-May-26 23:32N 47°41' W 122°25'0 0.0
2015-May-26 22:32N 47°41' W 122°25'0 0.0
2015-May-26 22:23N 47°41' W 122°25'0 0.0
2015-May-26 21:29N 47°41' W 122°25'0 0.1
2015-May-26 21:23N 47°41' W 122°25'0 0.0
2015-May-26 20:29N 47°41' W 122°25'0 0.0
2015-May-26 20:02N 47°41' W 122°25'0 0.0
2015-May-26 19:32N 47°41' W 122°25'0 0.0
2015-May-26 19:32N 47°41' W 122°25'0 0.0
2015-May-26 18:17N 47°41' W 122°25'0 0.0
2015-May-26 18:11N 47°41' W 122°25'0 0.0
2015-May-26 17:26N 47°41' W 122°25'0 0.0
2015-May-26 17:20N 47°41' W 122°25'0 0.0
2015-May-26 16:32N 47°41' W 122°25'0 0.0
2015-May-26 16:20N 47°41' W 122°25'0 0.0
2015-May-26 15:32N 47°41' W 122°25'0 0.0
2015-May-26 15:20N 47°41' W 122°25'0 0.0
2015-May-26 14:32N 47°41' W 122°25'0 0.1
2015-May-26 14:29N 47°41' W 122°25'0 0.0
2015-May-26 13:32N 47°41' W 122°25'0 0.0
2015-May-26 12:32N 47°41' W 122°25'0 0.0
2015-May-26 12:23N 47°41' W 122°25'0 0.0
2015-May-26 11:29N 47°41' W 122°25'0 0.0
2015-May-26 11:23N 47°41' W 122°25'0 0.0
2015-May-26 10:32N 47°41' W 122°25'0 0.0
2015-May-26 09:47N 47°41' W 122°25'0 0.0
2015-May-26 09:32N 47°41' W 122°25'0 0.0
2015-May-26 09:32N 47°41' W 122°25'0 0.0
2015-May-26 08:32N 47°41' W 122°25'0 0.0
2015-May-26 08:32N 47°41' W 122°25'0 0.0
2015-May-26 07:32N 47°41' W 122°25'0 0.0
2015-May-26 07:26N 47°41' W 122°25'0 0.0
2015-May-26 06:32N 47°41' W 122°25'0 0.1
2015-May-26 06:26N 47°41' W 122°25'0 0.0
2015-May-26 06:11N 47°41' W 122°25'0 0.0
2015-May-26 05:32N 47°41' W 122°25'0 0.0
2015-May-26 04:32N 47°41' W 122°25'0 0.0
2015-May-26 04:20N 47°41' W 122°25'0 0.0
2015-May-26 03:32N 47°41' W 122°25'0 0.0
2015-May-26 03:20N 47°41' W 122°25'0 0.0
2015-May-26 02:32N 47°41' W 122°25'0 0.0
2015-May-26 02:20N 47°41' W 122°25'0 0.0
2015-May-26 01:32N 47°41' W 122°25'0 0.0
2015-May-26 00:32N 47°41' W 122°25'0 0.0
2015-May-25 23:35N 47°41' W 122°25'0 0.0
2015-May-25 23:32N 47°41' W 122°25'0 0.1
2015-May-25 23:29N 47°41' W 122°25'0 0.0
2015-May-25 22:29N 47°41' W 122°25'0 0.0
2015-May-25 22:29N 47°41' W 122°25'0 0.0
2015-May-25 21:32N 47°41' W 122°25'0 0.0
2015-May-25 20:29N 47°41' W 122°25'0 0.0
2015-May-25 20:29N 47°41' W 122°25'0 0.0
2015-May-25 19:29N 47°41' W 122°25'0 0.0
2015-May-25 19:23N 47°41' W 122°25'0 0.0
2015-May-25 18:32N 47°41' W 122°25'0 0.0
2015-May-25 17:32N 47°41' W 122°25'0 0.0
2015-May-25 17:11N 47°41' W 122°25'0 0.0
2015-May-25 16:32N 47°41' W 122°25'0 0.0
2015-May-25 16:26N 47°41' W 122°25'0 0.0
2015-May-25 15:32N 47°41' W 122°25'0 0.0
2015-May-25 15:26N 47°41' W 122°25'0 0.0
2015-May-25 14:32N 47°41' W 122°25'0 0.0
2015-May-25 13:50N 47°41' W 122°25'0 0.0
2015-May-25 13:32N 47°41' W 122°25'0 0.0
2015-May-25 13:20N 47°41' W 122°25'0 0.0
2015-May-25 12:32N 47°41' W 122°25'0 0.0
2015-May-25 12:20N 47°41' W 122°25'0 0.0
2015-May-25 11:32N 47°41' W 122°25'0 0.0
2015-May-25 11:29N 47°41' W 122°25'0 0.0
2015-May-25 10:32N 47°41' W 122°25'0 0.0
2015-May-25 10:23N 47°41' W 122°25'0 0.0
2015-May-25 09:29N 47°41' W 122°25'0 0.0
2015-May-25 08:47N 47°41' W 122°25'0 0.0
2015-May-25 08:32N 47°41' W 122°25'0 0.0
2015-May-25 08:32N 47°41' W 122°25'0 0.0
2015-May-25 07:32N 47°41' W 122°25'0 0.1
2015-May-25 07:26N 47°41' W 122°25'0 0.0
2015-May-25 06:32N 47°41' W 122°25'0 0.0
2015-May-25 06:20N 47°41' W 122°25'0 0.0
2015-May-25 06:05N 47°41' W 122°25'0 0.0
2015-May-25 05:32N 47°41' W 122°25'0 0.0
2015-May-25 04:32N 47°41' W 122°25'0 0.0
2015-May-25 04:14N 47°41' W 122°25'0 0.0
2015-May-25 03:32N 47°41' W 122°25'0 0.1
2015-May-25 03:29N 47°41' W 122°25'0 0.0
2015-May-25 02:32N 47°41' W 122°25'0 0.0
2015-May-25 01:53N 47°41' W 122°25'0 0.0
2015-May-25 01:32N 47°41' W 122°25'0 0.0
2015-May-25 01:23N 47°41' W 122°25'0 0.0
2015-May-25 00:32N 47°41' W 122°25'0 0.0
2015-May-25 00:23N 47°41' W 122°25'0 0.0
2015-May-24 23:32N 47°41' W 122°25'0 0.0
2015-May-24 22:47N 47°41' W 122°25'0 0.0
2015-May-24 22:32N 47°41' W 122°25'0 0.0
2015-May-24 22:32N 47°41' W 122°25'0 0.0
2015-May-24 21:32N 47°41' W 122°25'0 0.0
2015-May-24 21:32N 47°41' W 122°25'0 0.0
2015-May-24 20:32N 47°41' W 122°25'0 0.0
2015-May-24 20:26N 47°41' W 122°25'0 0.0
2015-May-24 19:29N 47°41' W 122°25'0 0.0
2015-May-24 18:32N 47°41' W 122°25'0 0.0
2015-May-24 18:11N 47°41' W 122°25'0 0.0
2015-May-24 17:32N 47°41' W 122°25'0 0.0
2015-May-24 17:20N 47°41' W 122°25'0 0.0
2015-May-24 16:32N 47°41' W 122°25'0 0.0
2015-May-24 16:29N 47°41' W 122°25'0 0.0
2015-May-24 15:32N 47°41' W 122°25'0 0.0
2015-May-24 15:29N 47°41' W 122°25'0 0.0
2015-May-24 14:29N 47°41' W 122°25'0 0.0
2015-May-24 14:29N 47°41' W 122°25'0 0.0
2015-May-24 13:32N 47°41' W 122°25'0 0.0
2015-May-24 13:29N 47°41' W 122°25'0 0.0
2015-May-24 12:32N 47°41' W 122°25'0 0.0
2015-May-24 12:23N 47°41' W 122°25'0 0.0
2015-May-24 11:32N 47°41' W 122°25'0 0.0
2015-May-24 11:23N 47°41' W 122°25'0 0.0
2015-May-24 10:32N 47°41' W 122°25'0 0.0
2015-May-24 10:23N 47°41' W 122°25'0 0.0
2015-May-24 09:32N 47°41' W 122°25'0 0.0
2015-May-24 08:53N 47°41' W 122°25'0 0.0
2015-May-24 08:32N 47°41' W 122°25'0 0.0
2015-May-24 08:23N 47°41' W 122°25'0 0.0
2015-May-24 07:32N 47°41' W 122°25'0 0.0
2015-May-24 07:32N 47°41' W 122°25'0 0.0
2015-May-24 06:32N 47°41' W 122°25'0 0.0
2015-May-24 06:02N 47°41' W 122°25'0 0.0
2015-May-24 05:32N 47°41' W 122°25'0 0.0
2015-May-24 04:32N 47°41' W 122°25'0 0.0
2015-May-24 04:32N 47°41' W 122°25'0 0.0
2015-May-24 03:29N 47°41' W 122°25'0 0.0
2015-May-24 03:17N 47°41' W 122°25'0 0.0
2015-May-24 02:32N 47°41' W 122°25'0 0.0
2015-May-24 02:26N 47°41' W 122°25'0 0.0
2015-May-24 01:32N 47°41' W 122°25'0 0.0
2015-May-24 01:26N 47°41' W 122°25'0 0.0
2015-May-24 00:32N 47°41' W 122°25'0 0.0
2015-May-24 00:26N 47°41' W 122°25'0 0.0
2015-May-23 23:32N 47°41' W 122°25'0 0.0
2015-May-23 23:20N 47°41' W 122°25'0 0.0
2015-May-23 22:32N 47°41' W 122°25'0 0.0
2015-May-23 22:20N 47°41' W 122°25'0 0.0
2015-May-23 21:32N 47°41' W 122°25'0 0.0
2015-May-23 20:59N 47°41' W 122°25'0 0.0
2015-May-23 20:32N 47°41' W 122°25'0 0.0
2015-May-23 20:29N 47°41' W 122°25'0 0.0
2015-May-23 19:29N 47°41' W 122°25'0 0.0
2015-May-23 19:23N 47°41' W 122°25'0 0.0
2015-May-23 18:32N 47°41' W 122°25'0 0.0
2015-May-23 18:23N 47°41' W 122°25'0 0.0
2015-May-23 17:32N 47°41' W 122°25'0 0.0
2015-May-23 17:23N 47°41' W 122°25'0 0.0
2015-May-23 16:32N 47°41' W 122°25'0 0.0
2015-May-23 16:32N 47°41' W 122°25'0 0.0
2015-May-23 15:32N 47°41' W 122°25'0 0.0
2015-May-23 15:26N 47°41' W 122°25'0 0.0
2015-May-23 14:29N 47°41' W 122°25'0 0.0
2015-May-23 14:11N 47°41' W 122°25'0 0.0
2015-May-23 13:32N 47°41' W 122°25'0 0.0
2015-May-23 12:50N 47°41' W 122°25'0 0.0
2015-May-23 12:29N 47°41' W 122°25'0 0.0
2015-May-23 12:20N 47°41' W 122°25'0 0.0
2015-May-23 11:32N 47°41' W 122°25'0 0.0
2015-May-23 11:29N 47°41' W 122°25'0 0.0
2015-May-23 10:32N 47°41' W 122°25'0 0.0
2015-May-23 09:59N 47°41' W 122°25'0 0.0
2015-May-23 09:32N 47°41' W 122°25'0 0.0
2015-May-23 09:29N 47°41' W 122°25'0 0.0
2015-May-23 08:32N 47°41' W 122°25'0 0.1
2015-May-23 08:29N 47°41' W 122°25'0 0.0
2015-May-23 07:32N 47°41' W 122°25'0 0.0
2015-May-23 06:32N 47°41' W 122°25'0 0.0
2015-May-23 06:17N 47°41' W 122°25'0 0.0
2015-May-23 05:41N 47°41' W 122°25'0 0.0
2015-May-23 05:32N 47°41' W 122°25'0 0.0
2015-May-23 04:32N 47°41' W 122°25'0 0.0
2015-May-23 03:56N 47°41' W 122°25'0 0.0
2015-May-23 03:32N 47°41' W 122°25'0 0.0
2015-May-23 03:26N 47°41' W 122°25'0 0.0
2015-May-23 02:32N 47°41' W 122°25'0 0.0
2015-May-23 02:20N 47°41' W 122°25'0 0.0
2015-May-23 01:32N 47°41' W 122°25'0 0.0
2015-May-23 01:14N 47°41' W 122°25'0 0.0
2015-May-23 00:32N 47°41' W 122°25'0 0.0
2015-May-23 00:29N 47°41' W 122°25'0 0.0
2015-May-22 23:32N 47°41' W 122°25'0 0.0
2015-May-22 23:29N 47°41' W 122°25'0 0.0
2015-May-22 22:32N 47°41' W 122°25'0 0.0
2015-May-22 22:23N 47°41' W 122°25'0 0.0
2015-May-22 21:32N 47°41' W 122°25'0 0.0
2015-May-22 21:23N 47°41' W 122°25'0 0.0
2015-May-22 20:29N 47°41' W 122°25'0 0.1
2015-May-22 20:23N 47°41' W 122°25'0 0.0
2015-May-22 19:32N 47°41' W 122°25'0 0.0
2015-May-22 19:08N 47°41' W 122°25'0 0.0
2015-May-22 18:32N 47°41' W 122°25'0 0.0
2015-May-22 18:32N 47°41' W 122°25'0 0.0
2015-May-22 17:26N 47°41' W 122°25'0 0.0
2015-May-22 17:26N 47°41' W 122°25'0 0.0
2015-May-22 16:32N 47°41' W 122°25'0 0.0
2015-May-22 16:26N 47°41' W 122°25'0 0.0
2015-May-22 15:29N 47°41' W 122°25'0 0.0
2015-May-22 14:59N 47°41' W 122°25'0 0.0
2015-May-22 14:32N 47°41' W 122°25'0 0.0
2015-May-22 14:29N 47°41' W 122°25'0 0.0
2015-May-22 13:32N 47°41' W 122°25'0 0.0
2015-May-22 13:23N 47°41' W 122°25'0 0.0
2015-May-22 12:29N 47°41' W 122°25'0 0.0
2015-May-22 11:47N 47°41' W 122°25'0 0.0
2015-May-22 11:32N 47°41' W 122°25'0 0.0
2015-May-22 11:32N 47°41' W 122°25'0 0.0
2015-May-22 10:32N 47°41' W 122°25'0 0.0
2015-May-22 10:32N 47°41' W 122°25'0 0.0
2015-May-22 09:32N 47°41' W 122°25'0 0.0
2015-May-22 09:32N 47°41' W 122°25'0 0.0
2015-May-22 08:29N 47°41' W 122°25'0 0.0
2015-May-22 08:05N 47°41' W 122°25'0 0.0
2015-May-22 07:32N 47°41' W 122°25'0 0.0
2015-May-22 07:20N 47°41' W 122°25'0 0.0
2015-May-22 06:32N 47°41' W 122°25'0 0.0
2015-May-22 05:44N 47°41' W 122°25'0 0.0
2015-May-22 05:32N 47°41' W 122°25'0 0.0
2015-May-22 04:32N 47°41' W 122°25'0 0.0
2015-May-22 04:23N 47°41' W 122°25'0 0.0
2015-May-22 03:32N 47°41' W 122°25'0 0.0
2015-May-22 03:08N 47°41' W 122°25'0 0.0
2015-May-22 02:32N 47°41' W 122°25'0 0.0
2015-May-22 02:23N 47°41' W 122°25'0 0.0
2015-May-22 01:29N 47°41' W 122°25'0 0.0
2015-May-22 01:23N 47°41' W 122°25'0 0.0
2015-May-22 00:32N 47°41' W 122°25'0 0.0
2015-May-22 00:32N 47°41' W 122°25'0 0.0
2015-May-21 23:32N 47°41' W 122°25'0 0.0
2015-May-21 22:50N 47°41' W 122°25'0 0.0
2015-May-21 22:32N 47°41' W 122°25'0 0.0
2015-May-21 22:20N 47°41' W 122°25'0 0.0
2015-May-21 21:32N 47°41' W 122°25'0 0.0
2015-May-21 21:20N 47°41' W 122°25'0 0.0
2015-May-21 20:32N 47°41' W 122°25'0 0.0
2015-May-21 20:20N 47°41' W 122°25'0 0.0
2015-May-21 19:29N 47°41' W 122°25'0 0.0
2015-May-21 19:29N 47°41' W 122°25'0 0.0
2015-May-21 18:32N 47°41' W 122°25'0 0.0
2015-May-21 17:53N 47°41' W 122°25'0 0.0
2015-May-21 17:32N 47°41' W 122°25'0 0.0
2015-May-21 17:23N 47°41' W 122°25'0 0.0
2015-May-21 16:32N 47°41' W 122°25'0 0.0
2015-May-21 16:32N 47°41' W 122°25'0 0.0
2015-May-21 15:32N 47°41' W 122°25'0 0.0
2015-May-21 15:02N 47°41' W 122°25'0 0.0
2015-May-21 14:32N 47°41' W 122°25'0 0.0
2015-May-21 14:11N 47°41' W 122°25'0 0.0
2015-May-21 13:32N 47°41' W 122°25'0 0.1
2015-May-21 13:26N 47°41' W 122°25'0 0.0
2015-May-21 12:32N 47°41' W 122°25'0 0.0
2015-May-21 11:56N 47°41' W 122°25'0 0.0
2015-May-21 11:32N 47°41' W 122°25'0 0.1
2015-May-21 11:26N 47°41' W 122°25'0 0.0
2015-May-21 10:32N 47°41' W 122°25'0 0.0
2015-May-21 10:20N 47°41' W 122°25'0 0.0
2015-May-21 09:32N 47°41' W 122°25'0 0.0
2015-May-21 09:05N 47°41' W 122°25'0 0.0
2015-May-21 08:32N 47°41' W 122°25'0 0.0
2015-May-21 08:20N 47°41' W 122°25'0 0.0
2015-May-21 07:32N 47°41' W 122°25'0 0.0
2015-May-21 07:14N 47°41' W 122°25'0 0.0
2015-May-21 06:32N 47°41' W 122°25'0 0.0
2015-May-21 06:29N 47°41' W 122°25'0 0.0
2015-May-21 05:59N 47°41' W 122°25'0 0.0
2015-May-21 05:32N 47°41' W 122°25'0 0.0
2015-May-21 04:32N 47°41' W 122°25'0 0.0
2015-May-21 04:29N 47°41' W 122°25'0 0.0
2015-May-21 03:32N 47°41' W 122°25'0 0.0
2015-May-21 03:08N 47°41' W 122°25'0 0.0
2015-May-21 02:29N 47°41' W 122°25'0 0.0
2015-May-21 02:17N 47°41' W 122°25'0 0.0
2015-May-21 01:32N 47°41' W 122°25'0 0.0
2015-May-21 01:32N 47°41' W 122°25'0 0.0
2015-May-21 00:32N 47°41' W 122°25'0 0.0
2015-May-21 00:32N 47°41' W 122°25'0 0.0
2015-May-20 23:32N 47°41' W 122°25'0 0.0
2015-May-20 23:20N 47°41' W 122°25'0 0.0
2015-May-20 22:32N 47°41' W 122°25'0 0.0
2015-May-20 22:20N 47°41' W 122°25'0 0.0
2015-May-20 21:32N 47°41' W 122°25'0 0.0
2015-May-20 21:20N 47°41' W 122°25'0 0.0
2015-May-20 20:32N 47°41' W 122°25'0 0.0
2015-May-20 20:20N 47°41' W 122°25'0 0.0
2015-May-20 19:32N 47°41' W 122°25'0 0.0
2015-May-20 19:29N 47°41' W 122°25'0 0.0
2015-May-20 18:32N 47°41' W 122°25'0 0.0
2015-May-20 18:29N 47°41' W 122°25'0 0.0
2015-May-20 17:32N 47°41' W 122°25'0 0.0
2015-May-20 17:14N 47°41' W 122°25'0 0.0
2015-May-20 16:32N 47°41' W 122°25'0 0.0
2015-May-20 16:23N 47°41' W 122°25'0 0.0
2015-May-20 15:32N 47°41' W 122°25'0 0.0
2015-May-20 14:38N 47°41' W 122°25'0 0.0
2015-May-20 14:32N 47°41' W 122°25'0 0.0
2015-May-20 14:32N 47°41' W 122°25'0 0.0
2015-May-20 13:32N 47°41' W 122°25'0 0.0
2015-May-20 13:32N 47°41' W 122°25'0 0.0
2015-May-20 12:29N 47°41' W 122°25'0 0.0
2015-May-20 12:11N 47°41' W 122°25'0 0.0
2015-May-20 11:29N 47°41' W 122°25'  
Track history (hours):
 
Tides and Currents Weather Stations Pressure Air Temp Water Temp Dewpoint Dewpoint Depression Visibility Wind Speed Wind Dir Waves Ship Positions

Alexis

Owner: Fordham, robert E, Monroe, WA. More information available from US FCC via Universal Licensing System and Coast Guard Vessel Documentation Center.

Last reported at 2015-May-30 12:31 UTC. Time now 2015-May-30 12:35 UTC.
Position N 47°41' W 122°25'.

Length 28 m; draft 2 m.

Type: Pleasure craft. MMSI: 366904250.

Date/timePositionNaut miles runAvg speedWind from/ knotsBaromVisibWave heightAir tempDewpointWater temp
2015-May-30 12:31N 47°41' W 122°25'0 0.0
2015-May-30 11:25N 47°41' W 122°25'0 0.0
2015-May-30 10:28N 47°41' W 122°25'0 0.0
2015-May-30 09:31N 47°41' W 122°25'0 0.0
2015-May-30 08:31N 47°41' W 122°25'0 0.0
2015-May-30 07:31N 47°41' W 122°25'0 0.0
2015-May-30 06:31N 47°41' W 122°25'0 0.0
2015-May-30 05:31N 47°41' W 122°25'0 0.0
2015-May-30 04:31N 47°41' W 122°25'0 0.0
2015-May-30 03:31N 47°41' W 122°25'0 0.0
2015-May-30 02:25N 47°41' W 122°25'0 0.0
2015-May-30 01:31N 47°41' W 122°25'0 0.0
2015-May-30 00:19N 47°41' W 122°25'0 0.0
2015-May-29 22:31N 47°41' W 122°25'0 0.0
2015-May-29 21:13N 47°41' W 122°25'0 0.0
2015-May-29 20:19N 47°41' W 122°25'0 0.0
2015-May-29 20:07N 47°41' W 122°25'0 0.0
2015-May-29 19:31N 47°41' W 122°25'0 0.0
2015-May-29 19:07N 47°41' W 122°25'0 0.0
2015-May-29 18:31N 47°41' W 122°25'0 0.0
2015-May-29 18:31N 47°41' W 122°25'0 0.0
2015-May-29 17:31N 47°41' W 122°25'0 0.0
2015-May-29 17:31N 47°41' W 122°25'0 0.0
2015-May-29 16:31N 47°41' W 122°25'0 0.0
2015-May-29 16:31N 47°41' W 122°25'0 0.0
2015-May-29 15:31N 47°41' W 122°25'0 0.0
2015-May-29 15:25N 47°41' W 122°25'0 0.0
2015-May-29 14:31N 47°41' W 122°25'0 0.0
2015-May-29 14:10N 47°41' W 122°25'0 0.0
2015-May-29 13:31N 47°41' W 122°25'0 0.0
2015-May-29 13:19N 47°41' W 122°25'0 0.0
2015-May-29 12:31N 47°41' W 122°25'0 0.0
2015-May-29 11:43N 47°41' W 122°25'0 0.0
2015-May-29 11:28N 47°41' W 122°25'0 0.0
2015-May-29 11:28N 47°41' W 122°25'0 0.0
2015-May-29 10:31N 47°41' W 122°25'0 0.1
2015-May-29 10:28N 47°41' W 122°25'0 0.0
2015-May-29 09:31N 47°41' W 122°25'0 0.0
2015-May-29 09:22N 47°41' W 122°25'0 0.0
2015-May-29 08:31N 47°41' W 122°25'0 0.0
2015-May-29 08:07N 47°41' W 122°25'0 0.0
2015-May-29 07:31N 47°41' W 122°25'0 0.0
2015-May-29 06:31N 47°41' W 122°25'0 0.0
2015-May-29 05:31N 47°41' W 122°25'0 0.0
2015-May-29 04:31N 47°41' W 122°25'0 0.0
2015-May-29 03:34N 47°41' W 122°25'0 0.1
2015-May-29 03:31N 47°41' W 122°25'0 0.0
2015-May-29 03:19N 47°41' W 122°25'0 0.0
2015-May-29 02:31N 47°41' W 122°25'0 0.0
2015-May-29 02:19N 47°41' W 122°25'0 0.0
2015-May-29 01:28N 47°41' W 122°25'0 0.0
2015-May-29 01:28N 47°41' W 122°25'0 0.0
2015-May-29 00:31N 47°41' W 122°25'0 0.0
2015-May-29 00:28N 47°41' W 122°25'0 0.0
2015-May-28 23:28N 47°41' W 122°25'0 0.0
2015-May-28 23:28N 47°41' W 122°25'3 3.7
2015-May-28 22:33N 47°37' W 122°23'0 0.0
2015-May-28 22:33N 47°37' W 122°23'1 1.4
2015-May-28 21:33N 47°37' W 122°21'0 6.9
2015-May-28 21:32N 47°37' W 122°22'4 3.7
2015-May-28 20:23N 47°41' W 122°25'0 0.0
2015-May-28 20:05N 47°41' W 122°25'0 0.0
2015-May-28 19:32N 47°41' W 122°25'0 0.0
2015-May-28 19:20N 47°41' W 122°25'0 0.0
2015-May-28 18:17N 47°41' W 122°25'0 0.0
2015-May-28 17:59N 47°41' W 122°25'0 0.0
2015-May-28 17:32N 47°41' W 122°25'0 0.0
2015-May-28 16:32N 47°41' W 122°25'0 0.0
2015-May-28 16:32N 47°41' W 122°25'0 0.0
2015-May-28 15:29N 47°41' W 122°25'0 0.0
2015-May-28 14:29N 47°41' W 122°25'0 0.0
2015-May-28 13:56N 47°41' W 122°25'0 0.0
2015-May-28 13:26N 47°41' W 122°25'0 0.0
2015-May-28 13:26N 47°41' W 122°25'0 0.0
2015-May-28 12:33N 47°41' W 122°25'0 0.0
2015-May-28 11:32N 47°41' W 122°25'0 0.0
2015-May-28 10:32N 47°41' W 122°25'0 0.0
2015-May-28 09:56N 47°41' W 122°25'0 0.0
2015-May-28 09:32N 47°41' W 122°25'0 0.0
2015-May-28 09:26N 47°41' W 122°25'0 0.0
2015-May-28 08:32N 47°41' W 122°25'0 0.0
2015-May-28 07:29N 47°41' W 122°25'0 0.0
2015-May-28 06:50N 47°41' W 122°25'0 0.0
2015-May-28 06:32N 47°41' W 122°25'0 0.0
2015-May-28 06:20N 47°41' W 122°25'0 0.0
2015-May-28 06:05N 47°41' W 122°25'0 0.0
2015-May-28 05:26N 47°41' W 122°25'0 0.0
2015-May-28 04:32N 47°41' W 122°25'0 0.0
2015-May-28 03:44N 47°41' W 122°25'0 0.0
2015-May-28 03:32N 47°41' W 122°25'0 0.0
2015-May-28 03:29N 47°41' W 122°25'0 0.0
2015-May-28 02:32N 47°41' W 122°25'0 0.0
2015-May-28 02:14N 47°41' W 122°25'0 0.0
2015-May-28 01:32N 47°41' W 122°25'0 0.0
2015-May-28 00:38N 47°41' W 122°25'0 0.0
2015-May-28 00:32N 47°41' W 122°25'0 0.0
2015-May-27 23:53N 47°41' W 122°25'0 0.0
2015-May-27 23:29N 47°41' W 122°25'0 0.0
2015-May-27 23:23N 47°41' W 122°25'0 0.0
2015-May-27 22:23N 47°41' W 122°25'0 0.0
2015-May-27 22:17N 47°41' W 122°25'0 0.0
2015-May-27 21:32N 47°41' W 122°25'0 0.0
2015-May-27 21:32N 47°41' W 122°25'0 0.0
2015-May-27 20:29N 47°41' W 122°25'0 0.0
2015-May-27 19:56N 47°41' W 122°25'0 0.0
2015-May-27 19:32N 47°41' W 122°25'0 0.0
2015-May-27 19:05N 47°41' W 122°25'0 0.0
2015-May-27 18:23N 47°41' W 122°25'0 0.0
2015-May-27 17:59N 47°41' W 122°25'0 0.0
2015-May-27 17:26N 47°41' W 122°25'0 0.0
2015-May-27 16:32N 47°41' W 122°25'0 0.0
2015-May-27 16:32N 47°41' W 122°25'0 0.0
2015-May-27 15:32N 47°41' W 122°25'0 0.0
2015-May-27 15:32N 47°41' W 122°25'0 0.0
2015-May-27 14:32N 47°41' W 122°25'0 0.0
2015-May-27 13:26N 47°41' W 122°25'0 0.0
2015-May-27 12:32N 47°41' W 122°25'0 0.0
2015-May-27 11:32N 47°41' W 122°25'0 0.0
2015-May-27 11:32N 47°41' W 122°25'0 0.0
2015-May-27 10:32N 47°41' W 122°25'0 0.0
2015-May-27 10:11N 47°41' W 122°25'0 0.0
2015-May-27 09:32N 47°41' W 122°25'0 0.0
2015-May-27 09:26N 47°41' W 122°25'0 0.0
2015-May-27 08:32N 47°41' W 122°25'0 0.1
2015-May-27 08:26N 47°41' W 122°25'0 0.0
2015-May-27 07:32N 47°41' W 122°25'0 0.1
2015-May-27 07:26N 47°41' W 122°25'0 0.0
2015-May-27 06:32N 47°41' W 122°25'0 0.1
2015-May-27 06:26N 47°41' W 122°25'0 0.0
2015-May-27 06:05N 47°41' W 122°25'0 0.0
2015-May-27 05:32N 47°41' W 122°25'0 0.0
2015-May-27 04:32N 47°41' W 122°25'0 0.0
2015-May-27 04:20N 47°41' W 122°25'0 0.0
2015-May-27 03:32N 47°41' W 122°25'0 0.0
2015-May-27 03:20N 47°41' W 122°25'0 0.0
2015-May-27 02:32N 47°41' W 122°25'0 0.0
2015-May-27 02:20N 47°41' W 122°25'0 0.0
2015-May-27 01:29N 47°41' W 122°25'0 0.0
2015-May-27 01:29N 47°41' W 122°25'0 0.0
2015-May-27 00:23N 47°41' W 122°25'0 0.0
2015-May-27 00:14N 47°41' W 122°25'0 0.0
2015-May-26 23:32N 47°41' W 122°25'0 0.0
2015-May-26 22:32N 47°41' W 122°25'0 0.0
2015-May-26 22:23N 47°41' W 122°25'0 0.0
2015-May-26 21:29N 47°41' W 122°25'0 0.1
2015-May-26 21:23N 47°41' W 122°25'0 0.0
2015-May-26 20:29N 47°41' W 122°25'0 0.0
2015-May-26 20:02N 47°41' W 122°25'0 0.0
2015-May-26 19:32N 47°41' W 122°25'0 0.0
2015-May-26 19:32N 47°41' W 122°25'0 0.0
2015-May-26 18:17N 47°41' W 122°25'0 0.0
2015-May-26 18:11N 47°41' W 122°25'0 0.0
2015-May-26 17:26N 47°41' W 122°25'0 0.0
2015-May-26 17:20N 47°41' W 122°25'0 0.0
2015-May-26 16:32N 47°41' W 122°25'0 0.0
2015-May-26 16:20N 47°41' W 122°25'0 0.0
2015-May-26 15:32N 47°41' W 122°25'0 0.0
2015-May-26 15:20N 47°41' W 122°25'0 0.0
2015-May-26 14:32N 47°41' W 122°25'0 0.1
2015-May-26 14:29N 47°41' W 122°25'0 0.0
2015-May-26 13:32N 47°41' W 122°25'0 0.0
2015-May-26 12:32N 47°41' W 122°25'0 0.0
2015-May-26 12:23N 47°41' W 122°25'0 0.0
2015-May-26 11:29N 47°41' W 122°25'0 0.0
2015-May-26 11:23N 47°41' W 122°25'0 0.0
2015-May-26 10:32N 47°41' W 122°25'0 0.0
2015-May-26 09:47N 47°41' W 122°25'0 0.0
2015-May-26 09:32N 47°41' W 122°25'0 0.0
2015-May-26 09:32N 47°41' W 122°25'0 0.0
2015-May-26 08:32N 47°41' W 122°25'0 0.0
2015-May-26 08:32N 47°41' W 122°25'0 0.0
2015-May-26 07:32N 47°41' W 122°25'0 0.0
2015-May-26 07:26N 47°41' W 122°25'0 0.0
2015-May-26 06:32N 47°41' W 122°25'0 0.1
2015-May-26 06:26N 47°41' W 122°25'0 0.0
2015-May-26 06:11N 47°41' W 122°25'0 0.0
2015-May-26 05:32N 47°41' W 122°25'0 0.0
2015-May-26 04:32N 47°41' W 122°25'0 0.0
2015-May-26 04:20N 47°41' W 122°25'0 0.0
2015-May-26 03:32N 47°41' W 122°25'0 0.0
2015-May-26 03:20N 47°41' W 122°25'0 0.0
2015-May-26 02:32N 47°41' W 122°25'0 0.0
2015-May-26 02:20N 47°41' W 122°25'0 0.0
2015-May-26 01:32N 47°41' W 122°25'0 0.0
2015-May-26 00:32N 47°41' W 122°25'0 0.0
2015-May-25 23:35N 47°41' W 122°25'0 0.0
2015-May-25 23:32N 47°41' W 122°25'0 0.1
2015-May-25 23:29N 47°41' W 122°25'0 0.0
2015-May-25 22:29N 47°41' W 122°25'0 0.0
2015-May-25 22:29N 47°41' W 122°25'0 0.0
2015-May-25 21:32N 47°41' W 122°25'0 0.0
2015-May-25 20:29N 47°41' W 122°25'0 0.0
2015-May-25 20:29N 47°41' W 122°25'0 0.0
2015-May-25 19:29N 47°41' W 122°25'0 0.0
2015-May-25 19:23N 47°41' W 122°25'0 0.0
2015-May-25 18:32N 47°41' W 122°25'0 0.0
2015-May-25 17:32N 47°41' W 122°25'0 0.0
2015-May-25 17:11N 47°41' W 122°25'0 0.0
2015-May-25 16:32N 47°41' W 122°25'0 0.0
2015-May-25 16:26N 47°41' W 122°25'0 0.0
2015-May-25 15:32N 47°41' W 122°25'0 0.0
2015-May-25 15:26N 47°41' W 122°25'0 0.0
2015-May-25 14:32N 47°41' W 122°25'0 0.0
2015-May-25 13:50N 47°41' W 122°25'0 0.0
2015-May-25 13:32N 47°41' W 122°25'0 0.0
2015-May-25 13:20N 47°41' W 122°25'0 0.0
2015-May-25 12:32N 47°41' W 122°25'0 0.0
2015-May-25 12:20N 47°41' W 122°25'0 0.0
2015-May-25 11:32N 47°41' W 122°25'0 0.0
2015-May-25 11:29N 47°41' W 122°25'0 0.0
2015-May-25 10:32N 47°41' W 122°25'0 0.0
2015-May-25 10:23N 47°41' W 122°25'0 0.0
2015-May-25 09:29N 47°41' W 122°25'0 0.0
2015-May-25 08:47N 47°41' W 122°25'0 0.0
2015-May-25 08:32N 47°41' W 122°25'0 0.0
2015-May-25 08:32N 47°41' W 122°25'0 0.0
2015-May-25 07:32N 47°41' W 122°25'0 0.1
2015-May-25 07:26N 47°41' W 122°25'0 0.0
2015-May-25 06:32N 47°41' W 122°25'0 0.0
2015-May-25 06:20N 47°41' W 122°25'0 0.0
2015-May-25 06:05N 47°41' W 122°25'0 0.0
2015-May-25 05:32N 47°41' W 122°25'0 0.0
2015-May-25 04:32N 47°41' W 122°25'0 0.0
2015-May-25 04:14N 47°41' W 122°25'0 0.0
2015-May-25 03:32N 47°41' W 122°25'0 0.1
2015-May-25 03:29N 47°41' W 122°25'0 0.0
2015-May-25 02:32N 47°41' W 122°25'0 0.0
2015-May-25 01:53N 47°41' W 122°25'0 0.0
2015-May-25 01:32N 47°41' W 122°25'0 0.0
2015-May-25 01:23N 47°41' W 122°25'0 0.0
2015-May-25 00:32N 47°41' W 122°25'0 0.0
2015-May-25 00:23N 47°41' W 122°25'0 0.0
2015-May-24 23:32N 47°41' W 122°25'0 0.0
2015-May-24 22:47N 47°41' W 122°25'0 0.0
2015-May-24 22:32N 47°41' W 122°25'0 0.0
2015-May-24 22:32N 47°41' W 122°25'0 0.0
2015-May-24 21:32N 47°41' W 122°25'0 0.0
2015-May-24 21:32N 47°41' W 122°25'0 0.0
2015-May-24 20:32N 47°41' W 122°25'0 0.0
2015-May-24 20:26N 47°41' W 122°25'0 0.0
2015-May-24 19:29N 47°41' W 122°25'0 0.0
2015-May-24 18:32N 47°41' W 122°25'0 0.0
2015-May-24 18:11N 47°41' W 122°25'0 0.0
2015-May-24 17:32N 47°41' W 122°25'0 0.0
2015-May-24 17:20N 47°41' W 122°25'0 0.0
2015-May-24 16:32N 47°41' W 122°25'0 0.0
2015-May-24 16:29N 47°41' W 122°25'0 0.0
2015-May-24 15:32N 47°41' W 122°25'0 0.0
2015-May-24 15:29N 47°41' W 122°25'0 0.0
2015-May-24 14:29N 47°41' W 122°25'0 0.0
2015-May-24 14:29N 47°41' W 122°25'0 0.0
2015-May-24 13:32N 47°41' W 122°25'0 0.0
2015-May-24 13:29N 47°41' W 122°25'0 0.0
2015-May-24 12:32N 47°41' W 122°25'0 0.0
2015-May-24 12:23N 47°41' W 122°25'0 0.0
2015-May-24 11:32N 47°41' W 122°25'0 0.0
2015-May-24 11:23N 47°41' W 122°25'0 0.0
2015-May-24 10:32N 47°41' W 122°25'0 0.0
2015-May-24 10:23N 47°41' W 122°25'0 0.0
2015-May-24 09:32N 47°41' W 122°25'0 0.0
2015-May-24 08:53N 47°41' W 122°25'0 0.0
2015-May-24 08:32N 47°41' W 122°25'0 0.0
2015-May-24 08:23N 47°41' W 122°25'0 0.0
2015-May-24 07:32N 47°41' W 122°25'0 0.0
2015-May-24 07:32N 47°41' W 122°25'0 0.0
2015-May-24 06:32N 47°41' W 122°25'0 0.0
2015-May-24 06:02N 47°41' W 122°25'0 0.0
2015-May-24 05:32N 47°41' W 122°25'0 0.0
2015-May-24 04:32N 47°41' W 122°25'0 0.0
2015-May-24 04:32N 47°41' W 122°25'0 0.0
2015-May-24 03:29N 47°41' W 122°25'0 0.0
2015-May-24 03:17N 47°41' W 122°25'0 0.0
2015-May-24 02:32N 47°41' W 122°25'0 0.0
2015-May-24 02:26N 47°41' W 122°25'0 0.0
2015-May-24 01:32N 47°41' W 122°25'0 0.0
2015-May-24 01:26N 47°41' W 122°25'0 0.0
2015-May-24 00:32N 47°41' W 122°25'0 0.0
2015-May-24 00:26N 47°41' W 122°25'0 0.0
2015-May-23 23:32N 47°41' W 122°25'0 0.0
2015-May-23 23:20N 47°41' W 122°25'0 0.0
2015-May-23 22:32N 47°41' W 122°25'0 0.0
2015-May-23 22:20N 47°41' W 122°25'0 0.0
2015-May-23 21:32N 47°41' W 122°25'0 0.0
2015-May-23 20:59N 47°41' W 122°25'0 0.0
2015-May-23 20:32N 47°41' W 122°25'0 0.0
2015-May-23 20:29N 47°41' W 122°25'0 0.0
2015-May-23 19:29N 47°41' W 122°25'0 0.0
2015-May-23 19:23N 47°41' W 122°25'0 0.0
2015-May-23 18:32N 47°41' W 122°25'0 0.0
2015-May-23 18:23N 47°41' W 122°25'0 0.0
2015-May-23 17:32N 47°41' W 122°25'0 0.0
2015-May-23 17:23N 47°41' W 122°25'0 0.0
2015-May-23 16:32N 47°41' W 122°25'0 0.0
2015-May-23 16:32N 47°41' W 122°25'0 0.0
2015-May-23 15:32N 47°41' W 122°25'0 0.0
2015-May-23 15:26N 47°41' W 122°25'0 0.0
2015-May-23 14:29N 47°41' W 122°25'0 0.0
2015-May-23 14:11N 47°41' W 122°25'0 0.0
2015-May-23 13:32N 47°41' W 122°25'0 0.0
2015-May-23 12:50N 47°41' W 122°25'0 0.0
2015-May-23 12:29N 47°41' W 122°25'0 0.0
2015-May-23 12:20N 47°41' W 122°25'0 0.0
2015-May-23 11:32N 47°41' W 122°25'0 0.0
2015-May-23 11:29N 47°41' W 122°25'0 0.0
2015-May-23 10:32N 47°41' W 122°25'0 0.0
2015-May-23 09:59N 47°41' W 122°25'0 0.0
2015-May-23 09:32N 47°41' W 122°25'0 0.0
2015-May-23 09:29N 47°41' W 122°25'0 0.0
2015-May-23 08:32N 47°41' W 122°25'0 0.1
2015-May-23 08:29N 47°41' W 122°25'0 0.0
2015-May-23 07:32N 47°41' W 122°25'0 0.0
2015-May-23 06:32N 47°41' W 122°25'0 0.0
2015-May-23 06:17N 47°41' W 122°25'0 0.0
2015-May-23 05:41N 47°41' W 122°25'0 0.0
2015-May-23 05:32N 47°41' W 122°25'0 0.0
2015-May-23 04:32N 47°41' W 122°25'0 0.0
2015-May-23 03:56N 47°41' W 122°25'0 0.0
2015-May-23 03:32N 47°41' W 122°25'0 0.0
2015-May-23 03:26N 47°41' W 122°25'0 0.0
2015-May-23 02:32N 47°41' W 122°25'0 0.0
2015-May-23 02:20N 47°41' W 122°25'0 0.0
2015-May-23 01:32N 47°41' W 122°25'0 0.0
2015-May-23 01:14N 47°41' W 122°25'0 0.0
2015-May-23 00:32N 47°41' W 122°25'0 0.0
2015-May-23 00:29N 47°41' W 122°25'0 0.0
2015-May-22 23:32N 47°41' W 122°25'0 0.0
2015-May-22 23:29N 47°41' W 122°25'0 0.0
2015-May-22 22:32N 47°41' W 122°25'0 0.0
2015-May-22 22:23N 47°41' W 122°25'0 0.0
2015-May-22 21:32N 47°41' W 122°25'0 0.0
2015-May-22 21:23N 47°41' W 122°25'0 0.0
2015-May-22 20:29N 47°41' W 122°25'0 0.1
2015-May-22 20:23N 47°41' W 122°25'0 0.0
2015-May-22 19:32N 47°41' W 122°25'0 0.0
2015-May-22 19:08N 47°41' W 122°25'0 0.0
2015-May-22 18:32N 47°41' W 122°25'0 0.0
2015-May-22 18:32N 47°41' W 122°25'0 0.0
2015-May-22 17:26N 47°41' W 122°25'0 0.0
2015-May-22 17:26N 47°41' W 122°25'0 0.0
2015-May-22 16:32N 47°41' W 122°25'0 0.0
2015-May-22 16:26N 47°41' W 122°25'0 0.0
2015-May-22 15:29N 47°41' W 122°25'0 0.0
2015-May-22 14:59N 47°41' W 122°25'0 0.0
2015-May-22 14:32N 47°41' W 122°25'0 0.0
2015-May-22 14:29N 47°41' W 122°25'0 0.0
2015-May-22 13:32N 47°41' W 122°25'0 0.0
2015-May-22 13:23N 47°41' W 122°25'0 0.0
2015-May-22 12:29N 47°41' W 122°25'0 0.0
2015-May-22 11:47N 47°41' W 122°25'0 0.0
2015-May-22 11:32N 47°41' W 122°25'0 0.0
2015-May-22 11:32N 47°41' W 122°25'0 0.0
2015-May-22 10:32N 47°41' W 122°25'0 0.0
2015-May-22 10:32N 47°41' W 122°25'0 0.0
2015-May-22 09:32N 47°41' W 122°25'0 0.0
2015-May-22 09:32N 47°41' W 122°25'0 0.0
2015-May-22 08:29N 47°41' W 122°25'0 0.0
2015-May-22 08:05N 47°41' W 122°25'0 0.0
2015-May-22 07:32N 47°41' W 122°25'0 0.0
2015-May-22 07:20N 47°41' W 122°25'0 0.0
2015-May-22 06:32N 47°41' W 122°25'0 0.0
2015-May-22 05:44N 47°41' W 122°25'0 0.0
2015-May-22 05:32N 47°41' W 122°25'0 0.0
2015-May-22 04:32N 47°41' W 122°25'0 0.0
2015-May-22 04:23N 47°41' W 122°25'0 0.0
2015-May-22 03:32N 47°41' W 122°25'0 0.0
2015-May-22 03:08N 47°41' W 122°25'0 0.0
2015-May-22 02:32N 47°41' W 122°25'0 0.0
2015-May-22 02:23N 47°41' W 122°25'0 0.0
2015-May-22 01:29N 47°41' W 122°25'0 0.0
2015-May-22 01:23N 47°41' W 122°25'0 0.0
2015-May-22 00:32N 47°41' W 122°25'0 0.0
2015-May-22 00:32N 47°41' W 122°25'0 0.0
2015-May-21 23:32N 47°41' W 122°25'0 0.0
2015-May-21 22:50N 47°41' W 122°25'0 0.0
2015-May-21 22:32N 47°41' W 122°25'0 0.0
2015-May-21 22:20N 47°41' W 122°25'0 0.0
2015-May-21 21:32N 47°41' W 122°25'0 0.0
2015-May-21 21:20N 47°41' W 122°25'0 0.0
2015-May-21 20:32N 47°41' W 122°25'0 0.0
2015-May-21 20:20N 47°41' W 122°25'0 0.0
2015-May-21 19:29N 47°41' W 122°25'0 0.0
2015-May-21 19:29N 47°41' W 122°25'0 0.0
2015-May-21 18:32N 47°41' W 122°25'0 0.0
2015-May-21 17:53N 47°41' W 122°25'0 0.0
2015-May-21 17:32N 47°41' W 122°25'0 0.0
2015-May-21 17:23N 47°41' W 122°25'0 0.0
2015-May-21 16:32N 47°41' W 122°25'0 0.0
2015-May-21 16:32N 47°41' W 122°25'0 0.0
2015-May-21 15:32N 47°41' W 122°25'0 0.0
2015-May-21 15:02N 47°41' W 122°25'0 0.0
2015-May-21 14:32N 47°41' W 122°25'0 0.0
2015-May-21 14:11N 47°41' W 122°25'0 0.0
2015-May-21 13:32N 47°41' W 122°25'0 0.1
2015-May-21 13:26N 47°41' W 122°25'0 0.0
2015-May-21 12:32N 47°41' W 122°25'0 0.0
2015-May-21 11:56N 47°41' W 122°25'0 0.0
2015-May-21 11:32N 47°41' W 122°25'0 0.1
2015-May-21 11:26N 47°41' W 122°25'0 0.0
2015-May-21 10:32N 47°41' W 122°25'0 0.0
2015-May-21 10:20N 47°41' W 122°25'0 0.0
2015-May-21 09:32N 47°41' W 122°25'0 0.0
2015-May-21 09:05N 47°41' W 122°25'0 0.0
2015-May-21 08:32N 47°41' W 122°25'0 0.0
2015-May-21 08:20N 47°41' W 122°25'0 0.0
2015-May-21 07:32N 47°41' W 122°25'0 0.0
2015-May-21 07:14N 47°41' W 122°25'0 0.0
2015-May-21 06:32N 47°41' W 122°25'0 0.0
2015-May-21 06:29N 47°41' W 122°25'0 0.0
2015-May-21 05:59N 47°41' W 122°25'0 0.0
2015-May-21 05:32N 47°41' W 122°25'0 0.0
2015-May-21 04:32N 47°41' W 122°25'0 0.0
2015-May-21 04:29N 47°41' W 122°25'0 0.0
2015-May-21 03:32N 47°41' W 122°25'0 0.0
2015-May-21 03:08N 47°41' W 122°25'0 0.0
2015-May-21 02:29N 47°41' W 122°25'0 0.0
2015-May-21 02:17N 47°41' W 122°25'0 0.0
2015-May-21 01:32N 47°41' W 122°25'0 0.0
2015-May-21 01:32N 47°41' W 122°25'0 0.0
2015-May-21 00:32N 47°41' W 122°25'0 0.0
2015-May-21 00:32N 47°41' W 122°25'0 0.0
2015-May-20 23:32N 47°41' W 122°25'0 0.0
2015-May-20 23:20N 47°41' W 122°25'0 0.0
2015-May-20 22:32N 47°41' W 122°25'0 0.0
2015-May-20 22:20N 47°41' W 122°25'0 0.0
2015-May-20 21:32N 47°41' W 122°25'0 0.0
2015-May-20 21:20N 47°41' W 122°25'0 0.0
2015-May-20 20:32N 47°41' W 122°25'0 0.0
2015-May-20 20:20N 47°41' W 122°25'0 0.0
2015-May-20 19:32N 47°41' W 122°25'0 0.0
2015-May-20 19:29N 47°41' W 122°25'0 0.0
2015-May-20 18:32N 47°41' W 122°25'0 0.0
2015-May-20 18:29N 47°41' W 122°25'0 0.0
2015-May-20 17:32N 47°41' W 122°25'0 0.0
2015-May-20 17:14N 47°41' W 122°25'0 0.0
2015-May-20 16:32N 47°41' W 122°25'0 0.0
2015-May-20 16:23N 47°41' W 122°25'0 0.0
2015-May-20 15:32N 47°41' W 122°25'0 0.0
2015-May-20 14:38N 47°41' W 122°25'0 0.0
2015-May-20 14:32N 47°41' W 122°25'0 0.0
2015-May-20 14:32N 47°41' W 122°25'0 0.0
2015-May-20 13:32N 47°41' W 122°25'0 0.0
2015-May-20 13:32N 47°41' W 122°25'0 0.0
2015-May-20 12:29N 47°41' W 122°25'0 0.0
2015-May-20 12:11N 47°41' W 122°25'0 0.0
2015-May-20 11:29N 47°41' W 122°25'  

Dump ship's entire track history